Saint Croix, Minnesota
Current Conditions -  °F | °C
As of 7:15 PM on Friday 24 Oct 2014 (Local Time) from KRNH Reporting Station
Haze Haze  
Wind Chill: 54°   Ceiling: Unl
Heat Index: 54°   Visibility: 4mi
Dew Point: 54°   Wind: 6mph
Humidity: 99%   Direction: 190°S
Pressure: 29.86"   Gusts: NA
Location:  45.1574°N, 92.7623°W
Report Text: KRNH 250015Z AUTO 19005KT 4SM BR CLR 12/12 A2986 RMK AO2 T01220120
Loading
Personal Weather Stations






























Interactive Weather Map
Tropical Storm Tracking
New forecast layout! Learn more

10-Day Weather Forecast

Advertisements
Track Severe Weather on mobile